Terminal Aerodrome Forecast
Issued by NWS Duluth, MN

Home | Current Version | Previous Version | Text Only | Print | Product List | Glossary On
Versions: 1 2 3 4 5 6 7 8 9 10 11 12 13 14
000
FTUS43 KDLH 271100
TAFINL
TAF
KINL 271120Z 2712/2812 VRB03KT P6SM SCT200
     FM271600 34005KT P6SM SCT200
     FM280100 33004KT P6SM BKN110
     FM280900 33004KT P6SM -RA BKN026=

USA.gov is the U.S. government's official web portal to all federal, state and local government web resources and services.